createdAt,value
2017-06-26T00:01:28.224Z,9.20
2017-06-26T00:03:54.192Z,10.03
2017-06-26T00:06:20.185Z,9.43
2017-06-26T00:08:46.149Z,9.10
2017-06-26T00:11:12.154Z,10.33
2017-06-26T00:13:38.147Z,9.67
2017-06-26T00:16:04.902Z,10.27
2017-06-26T00:18:30.877Z,9.20
2017-06-26T00:20:57.631Z,9.37
2017-06-26T00:23:23.631Z,9.50
2017-06-26T00:25:49.599Z,9.73
2017-06-26T00:28:15.611Z,9.03
2017-06-26T00:30:41.579Z,10.23
2017-06-26T00:33:07.607Z,8.40
2017-06-26T00:35:33.620Z,9.20
2017-06-26T00:37:59.650Z,10.03
2017-06-26T00:40:25.681Z,10.37
2017-06-26T00:42:52.420Z,10.30
2017-06-26T00:45:18.438Z,10.10
2017-06-26T00:47:44.395Z,9.43
2017-06-26T00:50:10.360Z,9.83
2017-06-26T00:52:36.358Z,9.30
2017-06-26T00:55:02.347Z,9.43
2017-06-26T00:57:28.367Z,10.20
2017-06-26T00:59:54.343Z,10.47
2017-06-26T01:02:20.343Z,9.90
2017-06-26T01:04:46.306Z,9.83
2017-06-26T01:07:12.319Z,10.13
2017-06-26T01:09:38.315Z,10.70
2017-06-26T01:12:04.360Z,9.93
2017-06-26T01:14:30.374Z,10.07
2017-06-26T01:16:56.333Z,9.87
2017-06-26T01:19:23.077Z,9.30
2017-06-26T01:21:49.086Z,10.47
2017-06-26T01:24:15.052Z,11.10
2017-06-26T01:26:41.064Z,9.77
2017-06-26T01:29:07.063Z,9.27
2017-06-26T01:31:33.063Z,9.83
2017-06-26T01:33:59.035Z,9.60
2017-06-26T01:36:25.031Z,11.00
2017-06-26T01:38:50.991Z,10.50
2017-06-26T01:41:17.022Z,8.57
2017-06-26T01:43:42.978Z,10.00
2017-06-26T01:46:08.986Z,9.70
2017-06-26T01:48:34.978Z,10.97
2017-06-26T01:51:00.933Z,11.23
2017-06-26T01:53:26.886Z,10.97
2017-06-26T01:55:53.627Z,9.53
2017-06-26T01:58:19.582Z,10.90
2017-06-26T02:00:45.554Z,10.83
2017-06-26T02:03:11.554Z,9.73
2017-06-26T02:05:37.526Z,10.00
2017-06-26T02:08:03.481Z,10.07
2017-06-26T02:10:29.487Z,9.90
2017-06-26T02:12:55.437Z,10.77
2017-06-26T02:15:21.394Z,10.93
2017-06-26T02:17:47.389Z,9.87
2017-06-26T02:20:13.351Z,10.67
2017-06-26T02:22:39.399Z,9.60
2017-06-26T02:25:06.107Z,11.03
2017-06-26T02:27:32.076Z,11.80
2017-06-26T02:29:58.082Z,10.17
2017-06-26T02:32:24.038Z,10.30
2017-06-26T02:34:50.007Z,8.30
2017-06-26T02:37:16.074Z,10.73
2017-06-26T02:39:42.783Z,11.47
2017-06-26T02:42:09.570Z,10.40
2017-06-26T02:44:35.579Z,11.37
2017-06-26T02:47:01.531Z,10.43
2017-06-26T02:49:28.222Z,10.77
2017-06-26T02:51:54.194Z,10.47
2017-06-26T02:54:20.186Z,10.23
2017-06-26T02:56:46.883Z,10.07
2017-06-26T02:59:12.846Z,11.20
2017-06-26T03:01:38.862Z,10.37
2017-06-26T03:04:04.842Z,12.23
2017-06-26T03:06:30.850Z,11.57
2017-06-26T03:08:56.899Z,11.47
2017-06-26T03:11:22.846Z,11.40
2017-06-26T03:13:48.810Z,12.90
2017-06-26T03:16:14.835Z,12.73
2017-06-26T03:18:40.794Z,12.53
2017-06-26T03:21:06.768Z,11.00
2017-06-26T03:23:32.781Z,12.43
2017-06-26T03:25:58.734Z,11.10
2017-06-26T03:28:24.682Z,10.80
2017-06-26T03:30:50.711Z,9.80
2017-06-26T03:33:16.690Z,11.47
2017-06-26T03:35:42.647Z,11.90
2017-06-26T03:38:09.418Z,12.37
2017-06-26T03:40:35.389Z,9.33
2017-06-26T03:43:01.435Z,10.40
2017-06-26T03:45:27.395Z,9.30
2017-06-26T03:47:54.094Z,9.97
2017-06-26T03:50:20.103Z,9.13
2017-06-26T03:52:46.057Z,8.97
2017-06-26T03:55:12.014Z,8.70
2017-06-26T03:57:38.013Z,9.83
2017-06-26T04:00:03.979Z,9.80
2017-06-26T04:02:29.950Z,8.90
2017-06-26T04:04:56.006Z,9.87
2017-06-26T04:07:21.968Z,8.60
2017-06-26T04:09:47.937Z,9.77
2017-06-26T04:12:13.943Z,8.67
2017-06-26T04:14:39.954Z,8.93
2017-06-26T04:17:05.915Z,8.40
2017-06-26T04:19:32.714Z,7.27
2017-06-26T04:21:58.727Z,8.20
2017-06-26T04:24:24.726Z,7.63
2017-06-26T04:26:50.690Z,7.77
2017-06-26T04:29:16.702Z,7.77
2017-06-26T04:31:42.650Z,7.00
2017-06-26T04:34:15.663Z,7.07
2017-06-26T04:36:41.621Z,6.70
2017-06-26T04:39:14.370Z,6.57
2017-06-26T04:41:40.416Z,6.03
2017-06-26T04:44:06.375Z,6.23
2017-06-26T04:46:32.411Z,7.03
2017-06-26T04:48:58.411Z,7.00
2017-06-26T04:51:24.371Z,6.67
2017-06-26T04:53:50.378Z,5.50
2017-06-26T04:56:16.358Z,7.13
2017-06-26T04:58:42.322Z,6.00
2017-06-26T05:01:08.352Z,5.10
2017-06-26T05:03:49.294Z,4.43
2017-06-26T05:06:15.658Z,3.77
2017-06-26T05:08:41.630Z,3.23
2017-06-26T05:11:07.594Z,4.90
2017-06-26T05:13:33.594Z,4.27
2017-06-26T05:15:59.568Z,3.83
2017-06-26T05:18:25.536Z,4.70
2017-06-26T05:20:51.550Z,3.83
2017-06-26T05:23:18.303Z,4.33
2017-06-26T05:25:44.263Z,6.07
2017-06-26T05:28:10.218Z,5.63
2017-06-26T05:30:36.278Z,3.93
2017-06-26T05:33:02.250Z,4.40
2017-06-26T05:35:28.280Z,4.40
2017-06-26T05:37:54.230Z,4.87
2017-06-26T05:40:20.987Z,3.70
2017-06-26T05:42:47.038Z,3.83
2017-06-26T05:45:13.006Z,5.20
2017-06-26T05:47:39.015Z,4.90
2017-06-26T05:50:05.018Z,5.00
2017-06-26T05:52:31.007Z,5.67
2017-06-26T05:54:57.030Z,5.47
2017-06-26T05:57:22.995Z,8.50
2017-06-26T05:59:48.958Z,4.83
2017-06-26T06:02:14.974Z,5.20
2017-06-26T06:04:40.981Z,5.03
2017-06-26T06:07:06.951Z,5.07
2017-06-26T06:09:32.925Z,3.53
2017-06-26T06:11:58.927Z,3.70
2017-06-26T06:14:25.675Z,4.90
2017-06-26T06:16:51.748Z,2.90
2017-06-26T06:19:17.799Z,3.53
2017-06-26T06:21:43.827Z,4.53
2017-06-26T06:24:09.794Z,3.40
2017-06-26T06:26:36.005Z,3.90
2017-06-26T06:29:02.003Z,3.40
2017-06-26T06:31:27.978Z,4.20
2017-06-26T06:33:53.970Z,2.93
2017-06-26T06:36:19.926Z,2.83
2017-06-26T06:38:45.943Z,2.70
2017-06-26T06:41:12.686Z,3.40
2017-06-26T06:43:39.415Z,2.77
2017-06-26T06:46:05.416Z,3.40
2017-06-26T06:48:32.127Z,3.30
2017-06-26T06:50:58.153Z,2.43
2017-06-26T06:53:24.875Z,3.17
2017-06-26T06:55:51.575Z,3.20
2017-06-26T06:58:17.583Z,3.10
2017-06-26T07:00:43.539Z,2.93
2017-06-26T07:03:09.514Z,3.10
2017-06-26T07:05:35.511Z,3.10
2017-06-26T07:08:01.475Z,3.23
2017-06-26T07:10:27.465Z,2.73
2017-06-26T07:12:53.471Z,2.50
2017-06-26T07:15:19.435Z,2.97
2017-06-26T07:17:45.458Z,4.53
2017-06-26T07:20:11.447Z,2.57
2017-06-26T07:22:37.414Z,3.10
2017-06-26T07:25:03.410Z,3.70
2017-06-26T07:27:30.118Z,3.00
2017-06-26T07:29:56.070Z,3.10
2017-06-26T07:32:22.066Z,4.03
2017-06-26T07:34:48.059Z,3.10
2017-06-26T07:37:14.771Z,2.40
2017-06-26T07:39:41.546Z,3.50
2017-06-26T07:42:07.543Z,3.03
2017-06-26T07:44:33.498Z,3.10
2017-06-26T07:46:59.487Z,2.80
2017-06-26T07:49:25.438Z,3.63
2017-06-26T07:51:52.212Z,5.27
2017-06-26T07:54:18.174Z,3.13
2017-06-26T07:56:44.886Z,3.53
2017-06-26T07:59:10.891Z,4.20
2017-06-26T08:01:36.912Z,4.27
2017-06-26T08:04:03.634Z,4.20
2017-06-26T08:06:29.591Z,4.20
2017-06-26T08:08:55.634Z,4.57
2017-06-26T08:11:21.598Z,4.20
2017-06-26T08:13:47.574Z,4.40
2017-06-26T08:16:13.584Z,5.63
2017-06-26T08:18:40.286Z,3.90
2017-06-26T08:21:06.247Z,4.47
2017-06-26T08:23:32.291Z,5.10
2017-06-26T08:25:58.262Z,4.37
2017-06-26T08:28:24.254Z,4.13
2017-06-26T08:30:51.015Z,3.83
2017-06-26T08:33:17.018Z,7.17
2017-06-26T08:35:42.974Z,5.57
2017-06-26T08:38:08.965Z,7.10
2017-06-26T08:40:34.963Z,4.70
2017-06-26T08:43:00.983Z,4.43
2017-06-26T08:45:26.943Z,3.93
2017-06-26T08:47:52.945Z,4.47
2017-06-26T08:50:19.694Z,3.93
2017-06-26T08:52:45.675Z,4.60
2017-06-26T08:55:11.675Z,4.30
2017-06-26T08:57:37.622Z,4.23
2017-06-26T09:00:03.575Z,4.53
2017-06-26T09:02:29.590Z,4.03
2017-06-26T09:04:55.594Z,4.70
2017-06-26T09:07:21.546Z,4.50
2017-06-26T09:09:47.524Z,3.77
2017-06-26T09:12:13.526Z,4.00
2017-06-26T09:14:39.485Z,4.93
2017-06-26T09:17:05.455Z,4.27
2017-06-26T09:19:32.198Z,4.20
2017-06-26T09:21:58.154Z,4.87
2017-06-26T09:24:24.114Z,4.10
2017-06-26T09:26:50.102Z,5.10
2017-06-26T09:29:16.830Z,4.60
2017-06-26T09:31:43.545Z,5.83
2017-06-26T09:34:09.539Z,4.67
2017-06-26T09:36:35.501Z,6.80
2017-06-26T09:39:01.498Z,6.83
2017-06-26T09:41:27.459Z,6.07
2017-06-26T09:43:53.438Z,5.13
2017-06-26T09:46:19.441Z,4.33
2017-06-26T09:48:45.407Z,5.50
2017-06-26T09:51:11.375Z,5.07
2017-06-26T09:53:37.397Z,6.37
2017-06-26T09:56:03.378Z,4.37
2017-06-26T09:58:29.374Z,5.80
2017-06-26T10:00:55.387Z,5.83
2017-06-26T10:03:21.350Z,5.90
2017-06-26T10:05:47.319Z,6.10
2017-06-26T10:08:13.467Z,6.53
2017-06-26T10:10:40.191Z,6.23
2017-06-26T10:13:06.155Z,6.43
2017-06-26T10:15:32.195Z,5.53
2017-06-26T10:17:58.175Z,5.70
2017-06-26T10:20:24.189Z,4.60
2017-06-26T10:22:50.180Z,4.73
2017-06-26T10:25:16.206Z,4.90
2017-06-26T10:27:42.186Z,4.13
2017-06-26T10:30:08.938Z,4.87
2017-06-26T10:32:34.959Z,5.03
2017-06-26T10:35:00.915Z,4.80
2017-06-26T10:37:26.943Z,4.50
2017-06-26T10:39:52.924Z,4.73
2017-06-26T10:42:19.003Z,4.77
2017-06-26T10:44:45.246Z,4.70
2017-06-26T10:47:11.255Z,4.17
2017-06-26T10:49:37.227Z,4.10
2017-06-26T10:52:03.223Z,5.17
2017-06-26T10:54:29.200Z,3.27
2017-06-26T10:56:55.906Z,4.60
2017-06-26T10:59:21.902Z,4.10
2017-06-26T11:01:47.874Z,4.73
2017-06-26T11:04:13.894Z,4.17
2017-06-26T11:06:39.891Z,3.70
2017-06-26T11:09:05.840Z,3.43
2017-06-26T11:11:31.807Z,3.20
2017-06-26T11:13:57.833Z,3.60
2017-06-26T11:16:23.794Z,4.67
2017-06-26T11:18:50.493Z,2.63
2017-06-26T11:21:16.490Z,2.73
2017-06-26T11:23:42.513Z,2.27
2017-06-26T11:26:08.469Z,1.80
2017-06-26T11:28:34.426Z,1.60
2017-06-26T11:31:00.418Z,1.77
2017-06-26T11:33:26.378Z,1.23
2017-06-26T11:35:53.079Z,1.80
2017-06-26T11:38:19.082Z,1.57
2017-06-26T11:40:45.082Z,1.83
2017-06-26T11:43:11.062Z,1.53
2017-06-26T11:45:37.125Z,1.70
2017-06-26T11:48:03.090Z,1.67
2017-06-26T11:50:29.054Z,2.07
2017-06-26T11:52:55.858Z,1.83
2017-06-26T11:55:21.822Z,1.70
2017-06-26T11:57:47.774Z,1.70
2017-06-26T12:00:13.758Z,1.60
2017-06-26T12:02:39.755Z,1.70
2017-06-26T12:05:05.706Z,1.30
2017-06-26T12:07:31.663Z,1.57
2017-06-26T12:09:57.691Z,1.90
2017-06-26T12:12:23.642Z,1.20
2017-06-26T12:14:50.342Z,1.30
2017-06-26T12:17:16.363Z,1.83
2017-06-26T12:19:42.334Z,2.10
2017-06-26T12:22:08.310Z,1.80
2017-06-26T12:24:34.347Z,1.73
2017-06-26T12:27:00.294Z,1.83
2017-06-26T12:29:26.245Z,1.60
2017-06-26T12:31:52.232Z,1.43
2017-06-26T12:34:18.276Z,1.60
2017-06-26T12:36:44.238Z,1.77
2017-06-26T12:39:10.202Z,1.70
2017-06-26T12:41:36.211Z,1.60
2017-06-26T12:44:02.187Z,2.40
2017-06-26T12:46:28.163Z,1.60
2017-06-26T12:48:54.178Z,2.17
2017-06-26T12:51:20.135Z,1.90
2017-06-26T12:53:46.141Z,1.57
2017-06-26T12:56:12.142Z,1.73
2017-06-26T12:58:38.148Z,1.90
2017-06-26T13:01:04.158Z,1.67
2017-06-26T13:03:30.129Z,1.70
2017-06-26T13:05:56.122Z,2.00
2017-06-26T13:08:22.086Z,2.17
2017-06-26T13:10:48.077Z,1.87
2017-06-26T13:13:14.097Z,2.43
2017-06-26T13:15:40.055Z,2.20
2017-06-26T13:18:06.018Z,2.50
2017-06-26T13:20:32.023Z,1.83
2017-06-26T13:22:58.835Z,1.80
2017-06-26T13:25:32.663Z,1.93
2017-06-26T13:27:58.683Z,1.90
2017-06-26T13:30:24.659Z,2.70
2017-06-26T13:32:50.643Z,1.80
2017-06-26T13:35:16.934Z,1.47
2017-06-26T13:37:42.898Z,2.00
2017-06-26T13:40:08.864Z,2.87
2017-06-26T13:42:34.875Z,1.87
2017-06-26T13:45:00.826Z,2.07
2017-06-26T13:47:26.778Z,4.47
2017-06-26T13:49:52.778Z,2.53
2017-06-26T13:52:18.778Z,1.53
2017-06-26T13:54:44.791Z,1.80
2017-06-26T13:57:10.798Z,2.00
2017-06-26T13:59:36.763Z,2.10
2017-06-26T14:02:02.719Z,1.90
2017-06-26T14:04:28.711Z,1.80
2017-06-26T14:06:54.662Z,2.77
2017-06-26T14:09:20.654Z,2.13
2017-06-26T14:11:46.655Z,2.00
2017-06-26T14:14:12.714Z,2.53
2017-06-26T14:16:39.433Z,2.13
2017-06-26T14:19:06.138Z,3.83
2017-06-26T14:21:32.166Z,2.27
2017-06-26T14:23:58.134Z,2.17
2017-06-26T14:26:24.175Z,2.03
2017-06-26T14:28:50.152Z,1.73
2017-06-26T14:31:16.122Z,1.97
2017-06-26T14:33:42.150Z,1.90
2017-06-26T14:36:08.117Z,2.20
2017-06-26T14:38:34.833Z,1.80
2017-06-26T14:41:00.859Z,3.17
2017-06-26T14:43:27.560Z,1.97
2017-06-26T14:45:53.515Z,2.23
2017-06-26T14:48:19.523Z,2.30
2017-06-26T14:50:45.498Z,2.07
2017-06-26T14:53:11.507Z,1.70
2017-06-26T14:55:38.254Z,2.00
2017-06-26T14:58:04.253Z,2.40
2017-06-26T15:00:30.965Z,1.90
2017-06-26T15:02:57.730Z,2.00
2017-06-26T15:05:23.686Z,1.97
2017-06-26T15:07:49.642Z,2.70
2017-06-26T15:10:15.663Z,2.53
2017-06-26T15:12:41.638Z,3.33
2017-06-26T15:15:08.337Z,2.40
2017-06-26T15:17:34.338Z,2.30
2017-06-26T15:20:00.318Z,2.20
2017-06-26T15:22:26.334Z,2.40
2017-06-26T15:24:52.290Z,2.40
2017-06-26T15:27:19.074Z,2.50
2017-06-26T15:29:45.034Z,2.70
2017-06-26T15:32:11.742Z,2.13
2017-06-26T15:34:37.794Z,2.80
2017-06-26T15:37:03.808Z,2.23
2017-06-26T15:39:29.775Z,2.07
2017-06-26T15:41:56.526Z,2.17
2017-06-26T15:44:22.485Z,2.37
2017-06-26T15:46:48.487Z,2.30
2017-06-26T15:49:14.498Z,2.20
2017-06-26T15:51:40.467Z,3.00
2017-06-26T15:54:06.454Z,2.00
2017-06-26T15:56:33.167Z,3.80
2017-06-26T15:58:59.898Z,2.20
2017-06-26T16:01:26.631Z,3.47
2017-06-26T16:03:53.321Z,3.10
2017-06-26T16:06:19.275Z,2.60
2017-06-26T16:08:45.312Z,3.40
2017-06-26T16:11:11.271Z,2.93
2017-06-26T16:13:37.978Z,3.47
2017-06-26T16:16:03.970Z,2.80
2017-06-26T16:18:29.950Z,2.83
2017-06-26T16:20:55.914Z,2.63
2017-06-26T16:23:21.922Z,3.27
2017-06-26T16:25:47.895Z,2.87
2017-06-26T16:28:13.934Z,2.97
2017-06-26T16:30:39.898Z,3.03
2017-06-26T16:33:05.965Z,2.77
2017-06-26T16:35:32.745Z,2.93
2017-06-26T16:37:58.731Z,2.77
2017-06-26T16:40:24.731Z,2.30
2017-06-26T16:42:50.702Z,2.63
2017-06-26T16:45:16.675Z,3.60
2017-06-26T16:47:42.686Z,6.37
2017-06-26T16:50:08.658Z,2.80
2017-06-26T16:52:35.353Z,2.40
2017-06-26T16:55:01.350Z,2.63
2017-06-26T16:57:27.346Z,2.50
2017-06-26T16:59:53.305Z,2.87
2017-06-26T17:02:19.315Z,2.60
2017-06-26T17:04:45.291Z,2.73
2017-06-26T17:07:11.314Z,3.17
2017-06-26T17:09:37.274Z,4.33
2017-06-26T17:12:03.334Z,3.43
2017-06-26T17:14:29.326Z,3.87
2017-06-26T17:16:55.286Z,3.33
2017-06-26T17:19:21.258Z,4.53
2017-06-26T17:21:47.287Z,3.60
2017-06-26T17:24:13.986Z,3.83
2017-06-26T17:26:39.935Z,3.10
2017-06-26T17:29:05.918Z,3.07
2017-06-26T17:31:32.671Z,2.87
2017-06-26T17:33:58.648Z,2.80
2017-06-26T17:36:24.654Z,3.93
2017-06-26T17:38:50.652Z,2.70
2017-06-26T17:41:16.671Z,3.10
2017-06-26T17:43:42.646Z,3.00
2017-06-26T17:46:08.661Z,3.40
2017-06-26T17:48:34.631Z,3.23
2017-06-26T17:51:00.593Z,3.10
2017-06-26T17:53:26.590Z,2.97
2017-06-26T17:55:52.583Z,2.93
2017-06-26T17:58:18.571Z,2.90
2017-06-26T18:00:44.562Z,2.80
2017-06-26T18:03:10.540Z,3.03
2017-06-26T18:05:37.362Z,2.90
2017-06-26T18:08:03.409Z,3.70
2017-06-26T18:10:29.363Z,3.80
2017-06-26T18:12:55.362Z,4.10
2017-06-26T18:15:21.324Z,3.80
2017-06-26T18:17:47.330Z,3.93
2017-06-26T18:20:14.046Z,3.40
2017-06-26T18:22:40.776Z,3.00
2017-06-26T18:25:07.545Z,3.37
2017-06-26T18:27:33.502Z,3.93
2017-06-26T18:29:59.545Z,3.10
2017-06-26T18:32:25.526Z,3.63
2017-06-26T18:34:52.222Z,2.97
2017-06-26T18:37:18.214Z,3.43
2017-06-26T18:39:44.187Z,2.93
2017-06-26T18:42:10.194Z,2.83
2017-06-26T18:44:36.218Z,7.93
2017-06-26T18:47:02.177Z,3.97
2017-06-26T18:49:28.175Z,3.03
2017-06-26T18:51:54.138Z,5.97
2017-06-26T18:54:20.102Z,3.83
2017-06-26T18:56:46.122Z,3.50
2017-06-26T18:59:12.839Z,3.70
2017-06-26T19:01:39.026Z,3.13
2017-06-26T19:04:04.997Z,2.77
2017-06-26T19:06:31.031Z,2.60
2017-06-26T19:08:57.009Z,3.73
2017-06-26T19:11:22.968Z,2.80
2017-06-26T19:13:48.946Z,3.70
2017-06-26T19:16:14.950Z,3.00
2017-06-26T19:18:40.928Z,4.60
2017-06-26T19:21:06.910Z,2.87
2017-06-26T19:23:32.959Z,3.10
2017-06-26T19:25:58.928Z,3.30
2017-06-26T19:28:24.881Z,3.87
2017-06-26T19:30:50.943Z,4.37
2017-06-26T19:33:16.910Z,3.73
2017-06-26T19:35:42.910Z,3.73
2017-06-26T19:38:08.931Z,3.90
2017-06-26T19:40:34.879Z,3.10
2017-06-26T19:43:00.887Z,3.77
2017-06-26T19:45:26.891Z,3.20
2017-06-26T19:47:52.856Z,4.20
2017-06-26T19:50:18.867Z,2.93
2017-06-26T19:52:44.842Z,3.70
2017-06-26T19:55:11.566Z,4.27
2017-06-26T19:57:38.407Z,4.13
2017-06-26T20:00:04.391Z,4.83
2017-06-26T20:02:31.086Z,4.80
2017-06-26T20:04:57.115Z,4.97
2017-06-26T20:07:23.123Z,5.07
2017-06-26T20:09:49.088Z,5.10
2017-06-26T20:12:15.158Z,4.77
2017-06-26T20:14:41.236Z,3.60
2017-06-26T20:17:07.203Z,5.23
2017-06-26T20:19:33.146Z,5.07
2017-06-26T20:21:59.891Z,4.87
2017-06-26T20:24:25.855Z,5.20
2017-06-26T20:26:51.854Z,4.53
2017-06-26T20:29:17.896Z,4.13
2017-06-26T20:31:43.879Z,4.17
2017-06-26T20:34:09.842Z,3.97
2017-06-26T20:36:35.833Z,4.83
2017-06-26T20:39:01.794Z,5.77
2017-06-26T20:41:28.546Z,4.47
2017-06-26T20:43:54.511Z,4.33
2017-06-26T20:46:20.489Z,4.47
2017-06-26T20:48:46.518Z,6.23
2017-06-26T20:51:12.479Z,4.53
2017-06-26T20:53:38.435Z,5.10
2017-06-26T20:56:04.423Z,4.90
2017-06-26T20:58:30.414Z,6.60
2017-06-26T21:00:57.114Z,4.30
2017-06-26T21:03:23.098Z,4.30
2017-06-26T21:05:49.164Z,4.43
2017-06-26T21:08:15.858Z,5.73
2017-06-26T21:10:41.856Z,4.77
2017-06-26T21:13:07.878Z,5.53
2017-06-26T21:15:33.866Z,6.57
2017-06-26T21:17:59.860Z,5.23
2017-06-26T21:20:25.810Z,4.43
2017-06-26T21:22:51.770Z,4.23
2017-06-26T21:25:17.766Z,4.90
2017-06-26T21:27:43.782Z,4.83
2017-06-26T21:30:09.771Z,4.50
2017-06-26T21:32:35.767Z,5.13
2017-06-26T21:35:02.461Z,5.10
2017-06-26T21:37:28.458Z,4.60
2017-06-26T21:39:54.449Z,6.53
2017-06-26T21:42:20.394Z,7.50
2017-06-26T21:44:46.337Z,4.83
2017-06-26T21:47:12.361Z,5.23
2017-06-26T21:49:38.334Z,5.10
2017-06-26T21:52:04.289Z,5.43
2017-06-26T21:54:30.286Z,5.07
2017-06-26T21:56:56.258Z,5.47
2017-06-26T21:59:22.239Z,5.57
2017-06-26T22:01:48.978Z,6.60
2017-06-26T22:04:14.930Z,6.00
2017-06-26T22:06:41.640Z,5.30
2017-06-26T22:09:07.627Z,5.20
2017-06-26T22:11:33.615Z,5.10
2017-06-26T22:13:59.570Z,5.67
2017-06-26T22:16:25.528Z,4.93
2017-06-26T22:18:51.513Z,6.47
2017-06-26T22:21:17.538Z,5.43
2017-06-26T22:23:43.490Z,6.03
2017-06-26T22:26:09.443Z,5.10
2017-06-26T22:28:35.441Z,6.57
2017-06-26T22:31:01.398Z,6.20
2017-06-26T22:33:27.406Z,5.70
2017-06-26T22:35:53.426Z,6.33
2017-06-26T22:38:19.379Z,6.53
2017-06-26T22:40:45.419Z,6.93
2017-06-26T22:43:11.417Z,6.47
2017-06-26T22:45:37.387Z,7.67
2017-06-26T22:48:04.082Z,7.00
2017-06-26T22:50:30.096Z,8.23
2017-06-26T22:52:56.097Z,9.53
2017-06-26T22:55:22.057Z,7.90
2017-06-26T22:57:48.010Z,7.97
2017-06-26T23:00:14.002Z,6.33
2017-06-26T23:02:39.947Z,7.33
2017-06-26T23:05:05.894Z,7.33
2017-06-26T23:07:31.878Z,8.03
2017-06-26T23:09:57.822Z,6.57
2017-06-26T23:12:23.822Z,7.20
2017-06-26T23:14:49.811Z,6.50
2017-06-26T23:17:15.766Z,6.67
2017-06-26T23:19:41.709Z,7.20
2017-06-26T23:22:07.675Z,7.10
2017-06-26T23:24:33.638Z,6.33
2017-06-26T23:26:59.623Z,7.10
2017-06-26T23:29:25.622Z,7.23
2017-06-26T23:31:52.310Z,6.87
2017-06-26T23:34:18.270Z,7.80
2017-06-26T23:36:44.307Z,8.50
2017-06-26T23:39:10.298Z,7.10
2017-06-26T23:41:36.241Z,6.80
2017-06-26T23:44:02.246Z,7.47
2017-06-26T23:46:28.202Z,7.40
2017-06-26T23:48:54.886Z,7.33
2017-06-26T23:51:27.900Z,7.60
2017-06-26T23:53:54.646Z,6.73
2017-06-26T23:56:20.602Z,7.67
2017-06-26T23:58:46.558Z,6.57
